sensor_id;sensor_type;location;lat;lon;timestamp;pressure;altitude;pressure_sealevel;temperature;humidity
76448;BME280;65284;51.040;13.722;2023-07-13T00:02:03;99525.06;;;22.21;49.75
76448;BME280;65284;51.040;13.722;2023-07-13T00:04:30;99529.41;;;22.22;49.81
76448;BME280;65284;51.040;13.722;2023-07-13T00:06:59;99527.66;;;22.33;49.68
76448;BME280;65284;51.040;13.722;2023-07-13T00:09:25;99541.44;;;22.32;49.60
76448;BME280;65284;51.040;13.722;2023-07-13T00:11:55;99537.50;;;22.22;49.81
76448;BME280;65284;51.040;13.722;2023-07-13T00:14:27;99543.06;;;22.16;50.37
76448;BME280;65284;51.040;13.722;2023-07-13T00:16:54;99549.41;;;22.21;50.03
76448;BME280;65284;51.040;13.722;2023-07-13T00:19:21;99541.94;;;22.29;49.98
76448;BME280;65284;51.040;13.722;2023-07-13T00:21:47;99544.63;;;22.29;49.68
76448;BME280;65284;51.040;13.722;2023-07-13T00:24:16;99554.81;;;22.21;49.79
76448;BME280;65284;51.040;13.722;2023-07-13T00:26:48;99566.47;;;22.44;49.34
76448;BME280;65284;51.040;13.722;2023-07-13T00:29:14;99572.66;;;22.39;50.13
76448;BME280;65284;51.040;13.722;2023-07-13T00:31:42;99576.69;;;22.37;51.08
76448;BME280;65284;51.040;13.722;2023-07-13T00:34:10;99585.28;;;22.34;51.74
76448;BME280;65284;51.040;13.722;2023-07-13T00:36:36;99605.28;;;22.33;51.58
76448;BME280;65284;51.040;13.722;2023-07-13T00:39:03;99617.69;;;22.29;53.17
76448;BME280;65284;51.040;13.722;2023-07-13T00:41:33;99633.56;;;22.08;54.59
76448;BME280;65284;51.040;13.722;2023-07-13T00:44:02;99633.13;;;21.99;56.42
76448;BME280;65284;51.040;13.722;2023-07-13T00:46:31;99640.66;;;21.80;57.65
76448;BME280;65284;51.040;13.722;2023-07-13T00:49:04;99628.41;;;21.61;59.17
76448;BME280;65284;51.040;13.722;2023-07-13T00:51:39;99618.09;;;21.58;60.72
76448;BME280;65284;51.040;13.722;2023-07-13T00:54:15;99605.72;;;21.62;61.88
76448;BME280;65284;51.040;13.722;2023-07-13T00:56:44;99614.69;;;21.63;62.97
76448;BME280;65284;51.040;13.722;2023-07-13T00:59:13;99610.69;;;21.37;63.04
76448;BME280;65284;51.040;13.722;2023-07-13T01:01:41;99598.31;;;21.12;64.70
76448;BME280;65284;51.040;13.722;2023-07-13T01:04:07;99575.09;;;21.28;64.78
76448;BME280;65284;51.040;13.722;2023-07-13T01:06:36;99544.47;;;21.22;64.77
76448;BME280;65284;51.040;13.722;2023-07-13T01:09:04;99540.44;;;21.37;65.08
76448;BME280;65284;51.040;13.722;2023-07-13T01:11:31;99550.31;;;21.60;64.40
76448;BME280;65284;51.040;13.722;2023-07-13T01:13:57;99562.41;;;21.57;64.66
76448;BME280;65284;51.040;13.722;2023-07-13T01:16:28;99574.75;;;21.36;64.17
76448;BME280;65284;51.040;13.722;2023-07-13T01:18:56;99582.84;;;20.96;65.52
76448;BME280;65284;51.040;13.722;2023-07-13T01:21:25;99583.81;;;20.89;66.47
76448;BME280;65284;51.040;13.722;2023-07-13T01:23:52;99584.38;;;21.03;64.57
76448;BME280;65284;51.040;13.722;2023-07-13T01:26:19;99578.88;;;20.86;65.10
76448;BME280;65284;51.040;13.722;2023-07-13T01:28:45;99572.41;;;20.87;65.28
76448;BME280;65284;51.040;13.722;2023-07-13T01:31:12;99580.19;;;20.84;66.03
76448;BME280;65284;51.040;13.722;2023-07-13T01:33:42;99572.72;;;21.03;65.54
76448;BME280;65284;51.040;13.722;2023-07-13T01:36:10;99571.94;;;20.90;65.65
76448;BME280;65284;51.040;13.722;2023-07-13T01:38:37;99577.97;;;20.69;66.56
76448;BME280;65284;51.040;13.722;2023-07-13T01:41:03;99569.56;;;20.54;67.22
76448;BME280;65284;51.040;13.722;2023-07-13T01:43:30;99570.00;;;20.51;66.97
76448;BME280;65284;51.040;13.722;2023-07-13T01:45:56;99581.28;;;20.24;67.46
76448;BME280;65284;51.040;13.722;2023-07-13T01:48:43;99576.59;;;20.55;67.35
76448;BME280;65284;51.040;13.722;2023-07-13T01:51:09;99571.75;;;20.80;66.03
76448;BME280;65284;51.040;13.722;2023-07-13T01:53:35;99576.69;;;20.72;66.89
76448;BME280;65284;51.040;13.722;2023-07-13T01:56:02;99568.63;;;20.60;68.35
76448;BME280;65284;51.040;13.722;2023-07-13T01:58:28;99569.56;;;20.54;68.52
76448;BME280;65284;51.040;13.722;2023-07-13T02:00:55;99566.72;;;20.49;68.80
76448;BME280;65284;51.040;13.722;2023-07-13T02:03:21;99567.06;;;20.40;69.53
76448;BME280;65284;51.040;13.722;2023-07-13T02:05:48;99569.09;;;20.33;69.48
76448;BME280;65284;51.040;13.722;2023-07-13T02:08:14;99568.03;;;20.22;69.70
76448;BME280;65284;51.040;13.722;2023-07-13T02:10:41;99566.72;;;20.25;69.99
76448;BME280;65284;51.040;13.722;2023-07-13T02:13:07;99569.09;;;20.10;70.52
76448;BME280;65284;51.040;13.722;2023-07-13T02:15:39;99570.97;;;19.97;70.79
76448;BME280;65284;51.040;13.722;2023-07-13T02:18:07;99568.75;;;20.06;70.59
76448;BME280;65284;51.040;13.722;2023-07-13T02:20:33;99567.97;;;19.75;70.89
76448;BME280;65284;51.040;13.722;2023-07-13T02:22:59;99560.97;;;19.86;70.65
76448;BME280;65284;51.040;13.722;2023-07-13T02:25:26;99567.44;;;20.09;71.29
76448;BME280;65284;51.040;13.722;2023-07-13T02:27:54;99572.38;;;20.12;70.56
76448;BME280;65284;51.040;13.722;2023-07-13T02:30:20;99572.84;;;20.09;70.82
76448;BME280;65284;51.040;13.722;2023-07-13T02:32:48;99585.03;;;19.99;70.96
76448;BME280;65284;51.040;13.722;2023-07-13T02:35:15;99580.09;;;20.20;69.79
76448;BME280;65284;51.040;13.722;2023-07-13T02:37:41;99580.69;;;20.10;70.53
76448;BME280;65284;51.040;13.722;2023-07-13T02:40:08;99585.47;;;19.73;71.72
76448;BME280;65284;51.040;13.722;2023-07-13T02:42:35;99589.28;;;19.65;72.25
76448;BME280;65284;51.040;13.722;2023-07-13T02:45:05;99592.38;;;19.92;71.67
76448;BME280;65284;51.040;13.722;2023-07-13T02:47:33;99587.81;;;20.05;71.01
76448;BME280;65284;51.040;13.722;2023-07-13T02:49:59;99593.69;;;20.02;71.28
76448;BME280;65284;51.040;13.722;2023-07-13T02:52:26;99594.38;;;19.85;72.55
76448;BME280;65284;51.040;13.722;2023-07-13T02:54:53;99583.19;;;19.70;72.93
76448;BME280;65284;51.040;13.722;2023-07-13T02:57:19;99594.84;;;19.82;72.47
76448;BME280;65284;51.040;13.722;2023-07-13T02:59:45;99597.88;;;19.74;72.64
76448;BME280;65284;51.040;13.722;2023-07-13T03:02:12;99601.63;;;19.73;72.40
76448;BME280;65284;51.040;13.722;2023-07-13T03:04:39;99598.84;;;19.91;72.14
76448;BME280;65284;51.040;13.722;2023-07-13T03:07:07;99592.34;;;19.69;73.36
76448;BME280;65284;51.040;13.722;2023-07-13T03:09:34;99599.78;;;19.85;72.96
76448;BME280;65284;51.040;13.722;2023-07-13T03:12:01;99598.78;;;19.68;73.98
76448;BME280;65284;51.040;13.722;2023-07-13T03:14:28;99601.78;;;19.60;74.14
76448;BME280;65284;51.040;13.722;2023-07-13T03:16:54;99593.56;;;19.96;73.28
76448;BME280;65284;51.040;13.722;2023-07-13T03:19:20;99606.47;;;19.94;72.94
76448;BME280;65284;51.040;13.722;2023-07-13T03:21:47;99595.38;;;19.72;73.92
76448;BME280;65284;51.040;13.722;2023-07-13T03:24:13;99601.38;;;19.44;74.94
76448;BME280;65284;51.040;13.722;2023-07-13T03:26:40;99603.50;;;19.84;73.36
76448;BME280;65284;51.040;13.722;2023-07-13T03:29:06;99606.31;;;19.89;73.30
76448;BME280;65284;51.040;13.722;2023-07-13T03:31:34;99604.69;;;19.76;73.72
76448;BME280;65284;51.040;13.722;2023-07-13T03:34:01;99607.91;;;19.67;74.19
76448;BME280;65284;51.040;13.722;2023-07-13T03:36:29;99606.56;;;19.76;73.41
76448;BME280;65284;51.040;13.722;2023-07-13T03:38:57;99614.34;;;19.66;74.02
76448;BME280;65284;51.040;13.722;2023-07-13T03:41:25;99618.47;;;19.68;73.92
76448;BME280;65284;51.040;13.722;2023-07-13T03:43:51;99619.69;;;19.54;74.52
76448;BME280;65284;51.040;13.722;2023-07-13T03:46:18;99613.22;;;19.43;74.91
76448;BME280;65284;51.040;13.722;2023-07-13T03:48:47;99619.00;;;19.59;74.23
76448;BME280;65284;51.040;13.722;2023-07-13T03:51:15;99622.97;;;19.26;75.38
76448;BME280;65284;51.040;13.722;2023-07-13T03:53:43;99622.53;;;19.29;75.73
76448;BME280;65284;51.040;13.722;2023-07-13T03:56:10;99630.91;;;19.51;74.66
76448;BME280;65284;51.040;13.722;2023-07-13T03:58:39;99629.94;;;19.45;74.64
76448;BME280;65284;51.040;13.722;2023-07-13T04:01:08;99621.63;;;19.65;73.64
76448;BME280;65284;51.040;13.722;2023-07-13T04:03:35;99627.84;;;19.66;73.14
76448;BME280;65284;51.040;13.722;2023-07-13T04:06:04;99643.72;;;19.55;73.24
76448;BME280;65284;51.040;13.722;2023-07-13T04:08:34;99652.72;;;19.31;74.50
76448;BME280;65284;51.040;13.722;2023-07-13T04:11:01;99650.63;;;19.33;73.99
76448;BME280;65284;51.040;13.722;2023-07-13T04:13:28;99648.59;;;19.28;73.80
76448;BME280;65284;51.040;13.722;2023-07-13T04:15:55;99656.56;;;19.05;73.66
76448;BME280;65284;51.040;13.722;2023-07-13T04:18:21;99654.84;;;19.29;73.28
76448;BME280;65284;51.040;13.722;2023-07-13T04:20:49;99654.38;;;19.14;73.79
76448;BME280;65284;51.040;13.722;2023-07-13T04:23:18;99660.94;;;19.36;72.98
76448;BME280;65284;51.040;13.722;2023-07-13T04:25:46;99658.44;;;19.23;73.36
76448;BME280;65284;51.040;13.722;2023-07-13T04:28:16;99647.94;;;19.33;73.19
76448;BME280;65284;51.040;13.722;2023-07-13T04:30:44;99652.06;;;19.66;71.81
76448;BME280;65284;51.040;13.722;2023-07-13T04:33:10;99662.41;;;19.50;71.71
76448;BME280;65284;51.040;13.722;2023-07-13T04:35:36;99661.22;;;19.65;71.03
76448;BME280;65284;51.040;13.722;2023-07-13T04:38:03;99659.56;;;19.45;71.73
76448;BME280;65284;51.040;13.722;2023-07-13T04:40:30;99665.41;;;19.42;72.19
76448;BME280;65284;51.040;13.722;2023-07-13T04:42:56;99664.09;;;19.63;72.67
76448;BME280;65284;51.040;13.722;2023-07-13T04:45:24;99672.00;;;19.65;71.31
76448;BME280;65284;51.040;13.722;2023-07-13T04:47:50;99670.56;;;19.92;70.30
76448;BME280;65284;51.040;13.722;2023-07-13T04:50:17;99670.34;;;19.45;71.85
76448;BME280;65284;51.040;13.722;2023-07-13T04:52:47;99663.03;;;19.34;71.80
76448;BME280;65284;51.040;13.722;2023-07-13T04:55:14;99669.31;;;19.28;71.51
76448;BME280;65284;51.040;13.722;2023-07-13T04:57:40;99678.03;;;19.60;70.35
76448;BME280;65284;51.040;13.722;2023-07-13T05:00:07;99678.84;;;19.61;69.69
76448;BME280;65284;51.040;13.722;2023-07-13T05:02:34;99682.16;;;19.63;69.87
76448;BME280;65284;51.040;13.722;2023-07-13T05:05:01;99677.72;;;19.98;69.01
76448;BME280;65284;51.040;13.722;2023-07-13T05:07:29;99671.59;;;19.80;67.99
76448;BME280;65284;51.040;13.722;2023-07-13T05:09:56;99673.72;;;19.89;68.30
76448;BME280;65284;51.040;13.722;2023-07-13T05:12:23;99675.25;;;19.85;67.39
76448;BME280;65284;51.040;13.722;2023-07-13T05:14:49;99676.16;;;19.79;67.26
76448;BME280;65284;51.040;13.722;2023-07-13T05:17:16;99675.22;;;20.39;65.36
76448;BME280;65284;51.040;13.722;2023-07-13T05:19:43;99671.31;;;20.23;63.80
76448;BME280;65284;51.040;13.722;2023-07-13T05:22:09;99682.22;;;20.16;64.79
76448;BME280;65284;51.040;13.722;2023-07-13T05:24:36;99677.63;;;20.17;65.33
76448;BME280;65284;51.040;13.722;2023-07-13T05:27:02;99674.97;;;20.29;65.28
76448;BME280;65284;51.040;13.722;2023-07-13T05:29:28;99676.41;;;20.66;66.43
76448;BME280;65284;51.040;13.722;2023-07-13T05:31:55;99674.19;;;20.63;67.36
76448;BME280;65284;51.040;13.722;2023-07-13T05:34:22;99681.66;;;20.38;68.89
76448;BME280;65284;51.040;13.722;2023-07-13T05:36:49;99686.84;;;20.51;65.41
76448;BME280;65284;51.040;13.722;2023-07-13T05:39:16;99686.16;;;20.79;66.33
76448;BME280;65284;51.040;13.722;2023-07-13T05:41:43;99696.38;;;20.65;67.18
76448;BME280;65284;51.040;13.722;2023-07-13T05:44:09;99691.19;;;20.64;68.34
76448;BME280;65284;51.040;13.722;2023-07-13T05:46:35;99689.31;;;20.53;68.58
76448;BME280;65284;51.040;13.722;2023-07-13T05:49:02;99688.03;;;20.67;67.62
76448;BME280;65284;51.040;13.722;2023-07-13T05:51:29;99694.59;;;20.48;68.11
76448;BME280;65284;51.040;13.722;2023-07-13T05:53:56;99689.91;;;20.55;68.29
76448;BME280;65284;51.040;13.722;2023-07-13T05:56:22;99687.69;;;20.75;67.50
76448;BME280;65284;51.040;13.722;2023-07-13T05:58:49;99689.31;;;20.76;67.29
76448;BME280;65284;51.040;13.722;2023-07-13T06:01:16;99673.72;;;20.78;67.39
76448;BME280;65284;51.040;13.722;2023-07-13T06:03:43;99673.72;;;20.78;66.92
76448;BME280;65284;51.040;13.722;2023-07-13T06:06:10;99674.03;;;20.94;66.10
76448;BME280;65284;51.040;13.722;2023-07-13T06:08:37;99681.81;;;20.78;65.94
76448;BME280;65284;51.040;13.722;2023-07-13T06:11:11;99674.06;;;20.82;65.44
76448;BME280;65284;51.040;13.722;2023-07-13T06:13:39;99687.69;;;20.87;66.14
76448;BME280;65284;51.040;13.722;2023-07-13T06:16:06;99692.97;;;20.82;66.32
76448;BME280;65284;51.040;13.722;2023-07-13T06:18:33;99696.50;;;20.59;66.93
76448;BME280;65284;51.040;13.722;2023-07-13T06:21:05;99703.53;;;20.60;67.03
76448;BME280;65284;51.040;13.722;2023-07-13T06:23:31;99706.34;;;20.65;66.79
76448;BME280;65284;51.040;13.722;2023-07-13T06:25:58;99710.56;;;20.61;66.75
76448;BME280;65284;51.040;13.722;2023-07-13T06:28:24;99703.19;;;20.80;66.49
76448;BME280;65284;51.040;13.722;2023-07-13T06:30:50;99704.81;;;20.57;66.70
76448;BME280;65284;51.040;13.722;2023-07-13T06:33:17;99701.75;;;21.01;65.68
76448;BME280;65284;51.040;13.722;2023-07-13T06:35:43;99704.13;;;20.85;65.43
76448;BME280;65284;51.040;13.722;2023-07-13T06:38:10;99699.28;;;20.76;64.92
76448;BME280;65284;51.040;13.722;2023-07-13T06:40:36;99701.63;;;20.96;64.55
76448;BME280;65284;51.040;13.722;2023-07-13T06:43:03;99698.59;;;21.04;64.25
76448;BME280;65284;51.040;13.722;2023-07-13T06:45:29;99701.41;;;20.97;64.61
76448;BME280;65284;51.040;13.722;2023-07-13T06:47:55;99709.38;;;21.04;64.09
76448;BME280;65284;51.040;13.722;2023-07-13T06:50:22;99717.13;;;21.12;64.57
76448;BME280;65284;51.040;13.722;2023-07-13T06:52:48;99724.84;;;21.20;63.99
76448;BME280;65284;51.040;13.722;2023-07-13T06:55:18;99720.41;;;21.14;60.94
76448;BME280;65284;51.040;13.722;2023-07-13T06:57:44;99724.38;;;21.23;61.90
76448;BME280;65284;51.040;13.722;2023-07-13T07:00:11;99734.69;;;21.26;60.48
76448;BME280;65284;51.040;13.722;2023-07-13T07:02:38;99728.34;;;21.32;61.91
76448;BME280;65284;51.040;13.722;2023-07-13T07:05:04;99734.69;;;21.50;61.13
76448;BME280;65284;51.040;13.722;2023-07-13T07:07:31;99736.59;;;21.38;60.34
76448;BME280;65284;51.040;13.722;2023-07-13T07:09:57;99735.28;;;21.40;59.51
76448;BME280;65284;51.040;13.722;2023-07-13T07:12:24;99739.59;;;21.53;59.44
76448;BME280;65284;51.040;13.722;2023-07-13T07:14:50;99733.66;;;21.39;60.43
76448;BME280;65284;51.040;13.722;2023-07-13T07:17:17;99741.25;;;21.54;59.93
76448;BME280;65284;51.040;13.722;2023-07-13T07:19:43;99734.91;;;21.60;59.09
76448;BME280;65284;51.040;13.722;2023-07-13T07:22:10;99733.94;;;21.66;57.72
76448;BME280;65284;51.040;13.722;2023-07-13T07:24:36;99738.53;;;21.66;57.65
76448;BME280;65284;51.040;13.722;2023-07-13T07:27:03;99736.84;;;21.65;55.63
76448;BME280;65284;51.040;13.722;2023-07-13T07:29:33;99735.03;;;21.82;56.38
76448;BME280;65284;51.040;13.722;2023-07-13T07:32:02;99736.53;;;21.90;54.33
76448;BME280;65284;51.040;13.722;2023-07-13T07:34:48;99735.97;;;21.88;53.62
76448;BME280;65284;51.040;13.722;2023-07-13T07:37:15;99736.53;;;21.90;53.27
76448;BME280;65284;51.040;13.722;2023-07-13T07:39:45;99739.75;;;22.03;53.33
76448;BME280;65284;51.040;13.722;2023-07-13T07:42:31;99734.78;;;22.12;52.11
76448;BME280;65284;51.040;13.722;2023-07-13T07:44:58;99736.63;;;22.23;52.51
76448;BME280;65284;51.040;13.722;2023-07-13T07:47:24;99736.56;;;22.18;52.18
76448;BME280;65284;51.040;13.722;2023-07-13T07:49:51;99733.16;;;22.11;50.58
76448;BME280;65284;51.040;13.722;2023-07-13T07:52:17;99737.97;;;22.09;49.96
76448;BME280;65284;51.040;13.722;2023-07-13T07:54:44;99731.16;;;22.18;50.79
76448;BME280;65284;51.040;13.722;2023-07-13T07:57:13;99736.72;;;22.29;52.25
76448;BME280;65284;51.040;13.722;2023-07-13T07:59:42;99736.22;;;22.32;52.39
76448;BME280;65284;51.040;13.722;2023-07-13T08:02:12;99740.75;;;22.26;52.72
76448;BME280;65284;51.040;13.722;2023-07-13T08:04:58;99740.66;;;22.09;52.98
76448;BME280;65284;51.040;13.722;2023-07-13T08:07:30;99733.19;;;21.99;53.31
76448;BME280;65284;51.040;13.722;2023-07-13T08:09:56;99737.31;;;22.02;53.27
76448;BME280;65284;51.040;13.722;2023-07-13T08:12:23;99739.91;;;21.97;52.40
76448;BME280;65284;51.040;13.722;2023-07-13T08:14:52;99753.38;;;22.09;52.18
76448;BME280;65284;51.040;13.722;2023-07-13T08:17:25;99753.06;;;22.05;52.60
76448;BME280;65284;51.040;13.722;2023-07-13T08:19:52;99763.84;;;22.17;53.33
76448;BME280;65284;51.040;13.722;2023-07-13T08:22:19;99758.31;;;22.12;53.05
76448;BME280;65284;51.040;13.722;2023-07-13T08:24:45;99758.47;;;22.05;54.22
76448;BME280;65284;51.040;13.722;2023-07-13T08:27:13;99758.88;;;22.14;52.25
76448;BME280;65284;51.040;13.722;2023-07-13T08:29:40;99752.41;;;22.15;51.80
76448;BME280;65284;51.040;13.722;2023-07-13T08:32:07;99754.59;;;22.30;52.06
76448;BME280;65284;51.040;13.722;2023-07-13T08:34:37;99753.81;;;22.46;52.47
76448;BME280;65284;51.040;13.722;2023-07-13T08:37:04;99756.75;;;22.61;52.29
76448;BME280;65284;51.040;13.722;2023-07-13T08:39:31;99757.56;;;22.79;52.32
76448;BME280;65284;51.040;13.722;2023-07-13T08:42:05;99746.06;;;22.71;52.09
76448;BME280;65284;51.040;13.722;2023-07-13T08:47:16;99752.81;;;22.69;52.59
76448;BME280;65284;51.040;13.722;2023-07-13T08:49:44;99748.94;;;22.82;52.12
76448;BME280;65284;51.040;13.722;2023-07-13T08:52:17;99759.56;;;22.66;49.72
76448;BME280;65284;51.040;13.722;2023-07-13T08:54:52;99745.59;;;22.75;50.25
76448;BME280;65284;51.040;13.722;2023-07-13T08:57:25;99754.94;;;22.84;48.32
76448;BME280;65284;51.040;13.722;2023-07-13T08:59:56;99750.84;;;22.64;49.46
76448;BME280;65284;51.040;13.722;2023-07-13T09:02:26;99754.78;;;22.57;50.03
76448;BME280;65284;51.040;13.722;2023-07-13T09:10:40;99765.59;;;22.74;49.43
76448;BME280;65284;51.040;13.722;2023-07-13T09:13:33;99756.09;;;22.71;49.36
76448;BME280;65284;51.040;13.722;2023-07-13T09:16:03;99759.59;;;22.88;49.40
76448;BME280;65284;51.040;13.722;2023-07-13T09:18:37;99760.50;;;22.94;49.20
76448;BME280;65284;51.040;13.722;2023-07-13T09:21:09;99758.63;;;22.94;48.78
76448;BME280;65284;51.040;13.722;2023-07-13T09:23:38;99761.66;;;22.98;49.00
76448;BME280;65284;51.040;13.722;2023-07-13T09:26:11;99774.28;;;23.09;49.23
76448;BME280;65284;51.040;13.722;2023-07-13T09:28:42;99774.47;;;23.03;49.59
76448;BME280;65284;51.040;13.722;2023-07-13T09:31:13;99779.78;;;23.14;48.89
76448;BME280;65284;51.040;13.722;2023-07-13T09:33:41;99774.47;;;23.03;48.80
76448;BME280;65284;51.040;13.722;2023-07-13T09:39:01;99790.72;;;23.03;47.37
76448;BME280;65284;51.040;13.722;2023-07-13T09:44:35;99788.00;;;23.20;46.16
76448;BME280;65284;51.040;13.722;2023-07-13T09:47:02;99786.03;;;23.15;47.20
76448;BME280;65284;51.040;13.722;2023-07-13T09:49:34;99786.22;;;23.08;47.12
76448;BME280;65284;51.040;13.722;2023-07-13T09:52:09;99790.28;;;22.94;47.78
76448;BME280;65284;51.040;13.722;2023-07-13T09:54:37;99798.91;;;22.91;48.04
76448;BME280;65284;51.040;13.722;2023-07-13T09:57:12;99794.25;;;23.03;47.71
76448;BME280;65284;51.040;13.722;2023-07-13T09:59:44;99793.81;;;23.28;46.99
76448;BME280;65284;51.040;13.722;2023-07-13T10:02:24;99792.09;;;23.22;47.16
76448;BME280;65284;51.040;13.722;2023-07-13T10:05:02;99814.31;;;23.41;45.90
76448;BME280;65284;51.040;13.722;2023-07-13T10:07:31;99811.47;;;23.31;45.36
76448;BME280;65284;51.040;13.722;2023-07-13T10:09:59;99799.56;;;23.32;46.04
76448;BME280;65284;51.040;13.722;2023-07-13T10:12:35;99796.91;;;23.37;45.98
76448;BME280;65284;51.040;13.722;2023-07-13T10:15:06;99802.84;;;23.34;45.90
76448;BME280;65284;51.040;13.722;2023-07-13T10:17:50;99806.25;;;23.46;47.08
76448;BME280;65284;51.040;13.722;2023-07-13T10:20:18;99792.19;;;23.49;46.22
76448;BME280;65284;51.040;13.722;2023-07-13T10:22:59;99795.97;;;23.48;46.07
76448;BME280;65284;51.040;13.722;2023-07-13T10:25:31;99805.19;;;23.47;45.91
76448;BME280;65284;51.040;13.722;2023-07-13T10:28:06;99807.69;;;23.71;45.69
76448;BME280;65284;51.040;13.722;2023-07-13T10:30:41;99798.03;;;23.63;45.88
76448;BME280;65284;51.040;13.722;2023-07-13T10:33:11;99797.41;;;23.73;45.95
76448;BME280;65284;51.040;13.722;2023-07-13T10:35:40;99792.97;;;23.89;46.50
76448;BME280;65284;51.040;13.722;2023-07-13T10:38:14;99793.78;;;23.89;46.34
76448;BME280;65284;51.040;13.722;2023-07-13T10:40:52;99783.38;;;24.03;45.12
76448;BME280;65284;51.040;13.722;2023-07-13T10:43:25;99791.00;;;24.06;43.94
76448;BME280;65284;51.040;13.722;2023-07-13T10:45:54;99780.50;;;24.15;43.54
76448;BME280;65284;51.040;13.722;2023-07-13T10:48:22;99808.66;;;24.09;43.22
76448;BME280;65284;51.040;13.722;2023-07-13T10:50:51;99790.13;;;24.00;43.07
76448;BME280;65284;51.040;13.722;2023-07-13T10:53:31;99782.03;;;24.05;42.68
76448;BME280;65284;51.040;13.722;2023-07-13T10:56:01;99789.81;;;23.97;43.00
76448;BME280;65284;51.040;13.722;2023-07-13T10:58:32;99787.47;;;24.05;42.29
76448;BME280;65284;51.040;13.722;2023-07-13T11:03:34;99775.75;;;24.27;41.17
76448;BME280;65284;51.040;13.722;2023-07-13T11:06:15;99779.06;;;24.34;40.85
76448;BME280;65284;51.040;13.722;2023-07-13T11:19:24;99780.00;;;24.18;41.11
76448;BME280;65284;51.040;13.722;2023-07-13T11:25:00;99767.66;;;24.32;42.62
76448;BME280;65284;51.040;13.722;2023-07-13T11:27:38;99777.41;;;24.33;43.58
76448;BME280;65284;51.040;13.722;2023-07-13T11:30:20;99785.72;;;24.21;43.60
76448;BME280;65284;51.040;13.722;2023-07-13T11:33:03;99777.16;;;24.07;43.70
76448;BME280;65284;51.040;13.722;2023-07-13T11:35:37;99782.25;;;24.26;43.65
76448;BME280;65284;51.040;13.722;2023-07-13T11:38:16;99785.50;;;24.28;43.01
76448;BME280;65284;51.040;13.722;2023-07-13T11:40:46;99780.06;;;24.28;43.42
76448;BME280;65284;51.040;13.722;2023-07-13T11:43:22;99793.81;;;24.16;42.73
76448;BME280;65284;51.040;13.722;2023-07-13T11:45:50;99778.88;;;24.14;42.68
76448;BME280;65284;51.040;13.722;2023-07-13T11:50:53;99781.16;;;24.00;42.29
76448;BME280;65284;51.040;13.722;2023-07-13T11:53:21;99772.72;;;23.96;43.23
76448;BME280;65284;51.040;13.722;2023-07-13T11:55:48;99757.16;;;24.14;43.35
76448;BME280;65284;51.040;13.722;2023-07-13T11:58:19;99767.91;;;24.30;43.01
76448;BME280;65284;51.040;13.722;2023-07-13T12:00:47;99768.19;;;24.34;43.03
76448;BME280;65284;51.040;13.722;2023-07-13T12:03:18;99762.03;;;24.12;43.11
76448;BME280;65284;51.040;13.722;2023-07-13T12:06:03;99772.97;;;24.22;43.58
76448;BME280;65284;51.040;13.722;2023-07-13T12:08:38;99764.22;;;24.15;43.41
76448;BME280;65284;51.040;13.722;2023-07-13T12:11:16;99764.94;;;24.05;43.90
76448;BME280;65284;51.040;13.722;2023-07-13T12:13:44;99761.28;;;24.21;42.28
76448;BME280;65284;51.040;13.722;2023-07-13T12:16:15;99761.56;;;24.20;42.78
76448;BME280;65284;51.040;13.722;2023-07-13T12:18:43;99750.66;;;24.15;43.08
76448;BME280;65284;51.040;13.722;2023-07-13T12:21:17;99751.09;;;24.34;42.78
76448;BME280;65284;51.040;13.722;2023-07-13T12:23:47;99754.06;;;24.32;41.66
76448;BME280;65284;51.040;13.722;2023-07-13T12:26:17;99748.28;;;24.50;41.67
76448;BME280;65284;51.040;13.722;2023-07-13T12:28:47;99751.53;;;24.85;41.12
76448;BME280;65284;51.040;13.722;2023-07-13T12:31:33;99756.38;;;24.78;41.20
76448;BME280;65284;51.040;13.722;2023-07-13T12:34:11;99760.81;;;24.57;40.20
76448;BME280;65284;51.040;13.722;2023-07-13T12:36:45;99751.16;;;24.71;40.11
76448;BME280;65284;51.040;13.722;2023-07-13T12:39:15;99757.69;;;24.70;40.44
76448;BME280;65284;51.040;13.722;2023-07-13T12:41:43;99765.25;;;24.68;40.50
76448;BME280;65284;51.040;13.722;2023-07-13T12:44:14;99776.31;;;24.93;39.78
76448;BME280;65284;51.040;13.722;2023-07-13T12:47:03;99749.59;;;24.80;39.97
76448;BME280;65284;51.040;13.722;2023-07-13T12:49:33;99754.78;;;24.82;39.86
76448;BME280;65284;51.040;13.722;2023-07-13T12:52:09;99750.44;;;24.86;40.10
76448;BME280;65284;51.040;13.722;2023-07-13T12:54:39;99764.09;;;24.96;38.66
76448;BME280;65284;51.040;13.722;2023-07-13T12:57:16;99742.97;;;25.03;38.86
76448;BME280;65284;51.040;13.722;2023-07-13T12:59:43;99739.97;;;25.05;39.02
76448;BME280;65284;51.040;13.722;2023-07-13T13:02:30;99762.75;;;24.98;38.20
76448;BME280;65284;51.040;13.722;2023-07-13T13:04:58;99748.09;;;25.00;38.33
76448;BME280;65284;51.040;13.722;2023-07-13T13:07:25;99740.47;;;24.96;38.01
76448;BME280;65284;51.040;13.722;2023-07-13T13:09:52;99748.63;;;24.96;37.67
76448;BME280;65284;51.040;13.722;2023-07-13T13:12:19;99745.19;;;25.11;38.18
76448;BME280;65284;51.040;13.722;2023-07-13T13:14:46;99746.13;;;25.32;37.49
76448;BME280;65284;51.040;13.722;2023-07-13T13:17:20;99737.47;;;25.40;37.78
76448;BME280;65284;51.040;13.722;2023-07-13T13:19:47;99745.13;;;25.54;36.76
76448;BME280;65284;51.040;13.722;2023-07-13T13:22:14;99729.59;;;25.49;37.33
76448;BME280;65284;51.040;13.722;2023-07-13T13:24:40;99744.63;;;25.67;36.51
76448;BME280;65284;51.040;13.722;2023-07-13T13:27:16;99753.38;;;25.74;36.85
76448;BME280;65284;51.040;13.722;2023-07-13T13:29:44;99730.03;;;25.83;36.08
76448;BME280;65284;51.040;13.722;2023-07-13T13:32:13;99746.41;;;26.04;36.51
76448;BME280;65284;51.040;13.722;2023-07-13T13:34:40;99742.31;;;26.01;36.19